createdAt,value
2023-04-27T00:04:26.382Z,89.20
2023-04-27T00:09:30.266Z,90.00
2023-04-27T00:14:33.526Z,90.10
2023-04-27T00:19:39.750Z,90.20
2023-04-27T00:24:43.397Z,90.60
2023-04-27T00:29:46.618Z,90.70
2023-04-27T00:34:51.581Z,91.00
2023-04-27T00:39:55.148Z,91.00
2023-04-27T00:44:59.243Z,91.10
2023-04-27T00:50:04.549Z,91.30
2023-04-27T00:55:09.889Z,91.10
2023-04-27T01:00:14.023Z,91.20
2023-04-27T01:05:18.612Z,91.20
2023-04-27T01:10:23.107Z,91.40
2023-04-27T01:15:27.145Z,91.50
2023-04-27T01:20:32.304Z,91.60
2023-04-27T01:25:37.246Z,91.60
2023-04-27T01:30:41.062Z,91.60
2023-04-27T01:35:45.096Z,91.90
2023-04-27T01:40:50.002Z,92.00
2023-04-27T01:45:53.572Z,91.80
2023-04-27T01:50:58.366Z,91.80
2023-04-27T01:56:04.034Z,91.80
2023-04-27T02:01:09.831Z,91.90
2023-04-27T02:06:13.446Z,92.00
2023-04-27T02:11:18.503Z,92.20
2023-04-27T02:16:22.205Z,92.10
2023-04-27T02:21:25.815Z,92.20
2023-04-27T02:26:30.956Z,92.60
2023-04-27T02:31:35.087Z,92.60
2023-04-27T02:36:38.694Z,92.90
2023-04-27T02:41:43.692Z,92.90
2023-04-27T02:46:47.277Z,93.20
2023-04-27T02:51:50.829Z,93.30
2023-04-27T02:56:55.890Z,93.30
2023-04-27T03:01:59.169Z,93.40
2023-04-27T03:07:02.890Z,93.50
2023-04-27T03:12:08.797Z,94.00
2023-04-27T03:17:12.054Z,93.80
2023-04-27T03:22:16.745Z,94.10
2023-04-27T03:27:21.734Z,94.20
2023-04-27T03:32:27.378Z,94.50
2023-04-27T03:37:31.047Z,94.80
2023-04-27T03:42:36.098Z,94.90
2023-04-27T03:47:40.341Z,95.00
2023-04-27T03:52:44.048Z,95.00
2023-04-27T03:57:49.189Z,95.00
2023-04-27T04:02:53.683Z,95.30
2023-04-27T04:07:57.428Z,95.90
2023-04-27T04:13:03.674Z,96.10
2023-04-27T04:18:07.380Z,96.00
2023-04-27T04:23:11.115Z,95.90
2023-04-27T04:28:16.002Z,96.00
2023-04-27T04:33:20.505Z,96.10
2023-04-27T04:38:24.897Z,95.90
2023-04-27T04:43:30.377Z,95.60
2023-04-27T04:48:34.084Z,95.40
2023-04-27T04:53:38.004Z,95.10
2023-04-27T04:58:42.608Z,94.80
2023-04-27T05:03:47.319Z,94.60
2023-04-27T05:08:50.744Z,94.20
2023-04-27T05:13:55.682Z,93.50
2023-04-27T05:18:59.387Z,92.90
2023-04-27T05:24:04.300Z,92.30
2023-04-27T05:29:09.382Z,91.70
2023-04-27T05:34:13.798Z,91.40
2023-04-27T05:39:17.561Z,91.20
2023-04-27T05:44:22.627Z,90.80
2023-04-27T05:49:25.991Z,90.30
2023-04-27T05:54:29.675Z,89.90
2023-04-27T05:59:34.679Z,89.50
2023-04-27T06:04:38.954Z,89.40
2023-04-27T06:09:43.149Z,89.20
2023-04-27T06:14:48.146Z,88.30
2023-04-27T06:19:52.052Z,87.50
2023-04-27T06:24:55.694Z,86.30
2023-04-27T06:30:00.840Z,85.40
2023-04-27T06:35:04.443Z,85.00
2023-04-27T06:40:10.035Z,84.60
2023-04-27T06:45:15.165Z,84.60
2023-04-27T06:50:19.269Z,84.70
2023-04-27T06:55:22.675Z,84.30
2023-04-27T07:00:28.529Z,82.80
2023-04-27T07:05:32.110Z,80.90
2023-04-27T07:10:36.057Z,79.50
2023-04-27T07:15:41.057Z,77.50
2023-04-27T07:20:44.669Z,76.10
2023-04-27T07:25:48.378Z,75.00
2023-04-27T07:30:53.580Z,73.30
2023-04-27T07:35:57.300Z,71.90
2023-04-27T07:41:04.834Z,71.60
2023-04-27T07:46:10.087Z,71.10
2023-04-27T07:51:16.366Z,70.90
2023-04-27T07:56:19.896Z,70.60
2023-04-27T08:01:25.050Z,70.40
2023-04-27T08:06:30.087Z,70.30
2023-04-27T08:11:34.078Z,70.50
2023-04-27T08:16:39.252Z,70.50
2023-04-27T08:21:42.947Z,69.90
2023-04-27T08:26:46.518Z,69.00
2023-04-27T08:31:51.904Z,68.90
2023-04-27T08:36:56.653Z,68.10
2023-04-27T08:42:00.262Z,66.90
2023-04-27T08:47:07.172Z,66.40
2023-04-27T08:52:15.059Z,66.40
2023-04-27T08:57:18.898Z,65.80
2023-04-27T09:02:23.515Z,65.50
2023-04-27T09:07:28.787Z,65.00
2023-04-27T09:12:32.152Z,64.30
2023-04-27T09:17:38.860Z,64.10
2023-04-27T09:22:45.715Z,64.60
2023-04-27T09:27:48.959Z,63.80
2023-04-27T09:32:56.114Z,63.20
2023-04-27T09:38:00.226Z,61.30
2023-04-27T09:43:03.930Z,60.40
2023-04-27T09:48:09.773Z,60.50
2023-04-27T09:53:15.747Z,61.10
2023-04-27T09:59:06.948Z,60.30
2023-04-27T10:04:50.946Z,59.80
2023-04-27T10:09:54.757Z,59.00
2023-04-27T10:15:00.110Z,59.40
2023-04-27T10:20:09.546Z,59.90
2023-04-27T10:25:19.182Z,60.00
2023-04-27T10:30:23.669Z,59.90
2023-04-27T10:35:37.128Z,59.60
2023-04-27T10:40:40.639Z,59.50
2023-04-27T10:45:44.749Z,58.60
2023-04-27T10:50:51.770Z,58.50
2023-04-27T10:55:57.093Z,58.40
2023-04-27T11:01:00.405Z,57.30
2023-04-27T11:06:06.932Z,55.90
2023-04-27T11:11:16.887Z,55.70
2023-04-27T11:16:20.515Z,55.60
2023-04-27T11:21:28.551Z,55.50
2023-04-27T11:26:32.139Z,55.70
2023-04-27T11:31:43.796Z,56.30
2023-04-27T11:37:07.229Z,55.60
2023-04-27T11:42:22.040Z,56.30
2023-04-27T11:47:27.807Z,54.50
2023-04-27T11:52:33.695Z,53.70
2023-04-27T11:57:37.983Z,54.00
2023-04-27T12:02:42.474Z,54.60
2023-04-27T12:07:47.384Z,54.20
2023-04-27T12:12:50.631Z,53.60
2023-04-27T12:17:53.824Z,53.20
2023-04-27T12:22:58.871Z,53.70
2023-04-27T12:28:02.609Z,53.60
2023-04-27T12:33:10.891Z,52.50
2023-04-27T12:38:15.944Z,52.90
2023-04-27T12:43:19.451Z,52.20
2023-04-27T12:48:23.582Z,52.00
2023-04-27T12:53:29.580Z,52.10
2023-04-27T12:58:32.925Z,51.50
2023-04-27T13:03:36.321Z,51.50
2023-04-27T13:08:42.168Z,51.70
2023-04-27T13:13:45.791Z,51.90
2023-04-27T13:18:50.580Z,52.00
2023-04-27T13:23:55.101Z,52.30
2023-04-27T13:28:59.029Z,52.00
2023-04-27T13:34:04.303Z,51.60
2023-04-27T13:39:08.905Z,51.10
2023-04-27T13:44:12.395Z,50.50
2023-04-27T13:49:16.041Z,49.70
2023-04-27T13:54:21.848Z,49.00
2023-04-27T13:59:26.643Z,48.90
2023-04-27T14:04:30.311Z,49.20
2023-04-27T14:09:35.402Z,49.90
2023-04-27T14:14:39.036Z,50.20
2023-04-27T14:19:43.371Z,50.00
2023-04-27T14:24:48.311Z,50.30
2023-04-27T14:29:51.897Z,49.90
2023-04-27T14:34:55.452Z,49.70
2023-04-27T14:40:00.577Z,49.80
2023-04-27T14:45:04.149Z,50.00
2023-04-27T14:50:08.600Z,50.10
2023-04-27T14:55:15.617Z,50.20
2023-04-27T15:00:19.708Z,49.90
2023-04-27T15:05:23.432Z,49.90
2023-04-27T15:10:28.506Z,50.00
2023-04-27T15:15:32.146Z,50.00
2023-04-27T15:20:35.833Z,50.60
2023-04-27T15:25:40.497Z,51.20
2023-04-27T15:30:44.787Z,51.40
2023-04-27T15:35:48.126Z,51.50
2023-04-27T15:40:53.052Z,51.40
2023-04-27T15:45:56.809Z,51.50
2023-04-27T15:51:00.431Z,51.30
2023-04-27T15:56:05.525Z,51.40
2023-04-27T16:01:09.175Z,51.70
2023-04-27T16:06:12.852Z,51.80
2023-04-27T16:11:17.802Z,52.00
2023-04-27T16:16:21.498Z,52.10
2023-04-27T16:21:25.376Z,52.00
2023-04-27T16:26:30.303Z,51.80
2023-04-27T16:31:34.087Z,52.00
2023-04-27T16:36:38.235Z,51.80
2023-04-27T16:41:42.893Z,51.40
2023-04-27T16:46:47.949Z,51.20
2023-04-27T16:51:53.023Z,51.00
2023-04-27T16:56:58.056Z,50.80
2023-04-27T17:02:16.398Z,50.10
2023-04-27T17:07:25.951Z,50.00
2023-04-27T17:12:30.903Z,50.10
2023-04-27T17:17:35.719Z,50.30
2023-04-27T17:22:39.643Z,50.30
2023-04-27T17:27:44.747Z,50.00
2023-04-27T17:32:48.379Z,50.10
2023-04-27T17:37:53.387Z,50.50
2023-04-27T17:42:58.332Z,51.00
2023-04-27T17:48:02.101Z,51.70
2023-04-27T17:53:06.467Z,52.30
2023-04-27T17:58:11.650Z,52.30
2023-04-27T18:03:15.594Z,52.20
2023-04-27T18:08:19.652Z,52.40
2023-04-27T18:13:24.775Z,52.80
2023-04-27T18:18:29.182Z,53.30
2023-04-27T18:23:35.087Z,53.70
2023-04-27T18:28:42.111Z,54.10
2023-04-27T18:33:46.250Z,54.50
2023-04-27T18:38:50.018Z,54.90
2023-04-27T18:43:55.266Z,55.10
2023-04-27T18:48:58.894Z,55.40
2023-04-27T18:54:02.539Z,55.80
2023-04-27T18:59:07.787Z,56.00
2023-04-27T19:04:11.965Z,56.30
2023-04-27T19:09:15.977Z,56.50
2023-04-27T19:14:21.283Z,56.70
2023-04-27T19:19:25.357Z,56.90
2023-04-27T19:24:29.029Z,57.20
2023-04-27T19:29:49.159Z,57.30
2023-04-27T19:34:52.720Z,57.70
2023-04-27T19:39:56.485Z,57.90
2023-04-27T19:45:01.502Z,58.20
2023-04-27T19:50:05.506Z,58.50
2023-04-27T19:55:09.829Z,58.80
2023-04-27T20:00:16.123Z,59.00
2023-04-27T20:05:20.075Z,59.20
2023-04-27T20:10:24.197Z,59.30
2023-04-27T20:15:29.296Z,59.40
2023-04-27T20:20:33.048Z,59.50
2023-04-27T20:25:36.705Z,59.80
2023-04-27T20:30:41.874Z,59.60
2023-04-27T20:35:47.061Z,59.80
2023-04-27T20:40:52.965Z,60.40
2023-04-27T20:45:58.372Z,60.20
2023-04-27T20:51:02.224Z,60.50
2023-04-27T20:56:06.180Z,60.70
2023-04-27T21:01:11.258Z,61.00
2023-04-27T21:06:16.913Z,61.20
2023-04-27T21:11:20.162Z,61.80
2023-04-27T21:16:25.068Z,61.40
2023-04-27T21:21:28.806Z,61.80
2023-04-27T21:26:32.647Z,62.00
2023-04-27T21:31:37.923Z,62.00
2023-04-27T21:36:41.638Z,62.30
2023-04-27T21:41:45.287Z,62.50
2023-04-27T21:46:50.484Z,62.80
2023-04-27T21:51:54.141Z,62.90
2023-04-27T21:56:57.765Z,63.10
2023-04-27T22:02:06.918Z,63.20
2023-04-27T22:07:10.867Z,63.30
2023-04-27T22:12:14.367Z,63.40
2023-04-27T22:17:19.352Z,63.50
2023-04-27T22:22:23.076Z,63.70
2023-04-27T22:27:35.286Z,64.00
2023-04-27T22:32:47.293Z,64.10
2023-04-27T22:37:50.960Z,64.30
2023-04-27T22:42:55.410Z,64.50
2023-04-27T22:48:00.427Z,64.70
2023-04-27T22:53:04.291Z,64.70
2023-04-27T22:58:07.871Z,64.80
2023-04-27T23:03:13.196Z,65.10
2023-04-27T23:08:18.986Z,65.20
2023-04-27T23:13:22.677Z,65.40
2023-04-27T23:18:27.825Z,65.50
2023-04-27T23:23:31.451Z,66.10
2023-04-27T23:28:35.053Z,65.60
2023-04-27T23:33:40.152Z,65.60
2023-04-27T23:38:43.632Z,65.60
2023-04-27T23:43:47.712Z,65.70
2023-04-27T23:48:52.696Z,65.70
2023-04-27T23:53:56.449Z,65.70
2023-04-27T23:58:59.958Z,65.90
